FPST

Details ICAO FPST (TMS)
Name SAO TOME INTL
Region São Tomé and Príncipe
Timezone Africa/Sao_Tome (UTC+0.0)
Plans Departing 27
Arriving 48
Stats Elevation 33 ft / 10 m (AMSL)
Location 0.378175° 6.712152°
Runways 1
Magnetic Variation 2.769° W
Sunrise 2017-12-17 05:27:39 UTC / 2017-12-17 05:27:39 Local
Sunset 2017-12-17 17:33:36 UTC / 2017-12-17 17:33:36 Local
Advertisement - Login to hide

Runways

ID Width Length Bearing (true) Bearing (mag) Surface Threshold Offset Overrun Length
11 148 ft / 45 m 7,305 ft / 2,227 m 103.60° 106.37° Asphalt 200 ft / 61 m 0 ft / 0 m
29 148 ft / 45 m 7,305 ft / 2,227 m 283.60° 286.37° Asphalt 200 ft / 61 m 0 ft / 0 m

Map

Weather


0- 5 10 15 20 25 30 35+ Temperature / ° C

Clouds and Precipitation
Forecast for 2017-12-17 18:00 UTC. Updated an hour ago

Ground ~20,000 ft ~40,000 ft Winds

METAR

FPST 171500Z 30004KT 9999 TSRA CLD FEW017CB SCT040 BKN110 25/24 Q1010 NOSIG

TAF

TAF FPST 171100Z 1712/1818 12004KT 9999 FEW020CB SCT033 BKN100 PROB30 TEMPO 1713/1717 4000 TSRA FEW016CB BKN030 OVC060

Frequencies

Tower 118.90 MHz TWR
Warning: Do not use this data for real-world aviation or navigation. No guarantee of current accuracy is given.